Terminal Aerodrome Forecast
Issued by NWS Corpus Christi, TX

Home | Current Version | Previous Version | Text Only | Print | Product List | Glossary On
Versions: 1 2 3 4 5 6 7 8 9 10 11 12 13 14 15
000
FTUS44 KCRP 031720
TAFVCT
TAF
KVCT 031720Z 0318/0418 19005KT P6SM SCT035
     FM031900 16010KT P6SM VCSH SCT050 BKN200
     FM040200 16005KT P6SM FEW025
     FM041000 00000KT 4SM BR SCT015
     FM041400 19008KT P6SM SCT035=

USA.gov is the U.S. government's official web portal to all federal, state and local government web resources and services.